Time;durP1;ratioP1;P1;durP2;ratioP2;P2;SDS_P1;SDS_P2;PMS_P1;PMS_P2;Temp;Humidity;BMP_temperature;BMP_pressure;BME280_temperature;BME280_humidity;BME280_pressure;Samples;Min_cycle;Max_cycle;Signal;HPM_P1;HPM_P2
2023/07/11 00:02:00;;;;;;;7.72;5.68;;;20.50;99.90;;;;;;5005068;28;20060;-85
2023/07/11 00:04:26;;;;;;;7.82;6.05;;;20.50;99.90;;;;;;5004229;28;20486;-85
2023/07/11 00:06:52;;;;;;;11.25;6.28;;;20.40;99.90;;;;;;5005335;28;20022;-86
2023/07/11 00:09:19;;;;;;;12.40;5.53;;;20.40;99.90;;;;;;5005704;28;20021;-85
2023/07/11 00:11:44;;;;;;;8.98;5.63;;;20.30;99.90;;;;;;5005073;28;21061;-85
2023/07/11 00:14:11;;;;;;;9.98;6.30;;;20.30;99.90;;;;;;5004386;28;20028;-85
2023/07/11 00:16:37;;;;;;;8.02;5.88;;;20.30;99.90;;;;;;5005203;28;20512;-85
2023/07/11 00:19:03;;;;;;;10.00;6.28;;;20.20;99.90;;;;;;5005045;28;20030;-85
2023/07/11 00:21:29;;;;;;;9.05;6.57;;;20.20;99.90;;;;;;5004905;28;20060;-85
2023/07/11 00:24:03;;;;;;;9.50;6.47;;;20.20;99.90;;;;;;5004566;28;20894;-85
2023/07/11 00:26:32;;;;;;;12.23;6.18;;;20.10;99.90;;;;;;5004651;28;20022;-86
2023/07/11 00:29:13;;;;;;;9.55;6.13;;;20.10;99.90;;;;;;5004764;28;20129;-85
2023/07/11 00:31:39;;;;;;;8.82;6.13;;;20.10;99.90;;;;;;5005272;28;20025;-85
2023/07/11 00:34:05;;;;;;;9.13;5.75;;;20.00;99.90;;;;;;5003841;28;20070;-85
2023/07/11 00:36:30;;;;;;;8.90;6.03;;;19.90;99.90;;;;;;5008926;28;20037;-86
2023/07/11 00:38:56;;;;;;;8.85;5.78;;;19.90;99.90;;;;;;5006587;28;20071;-85
2023/07/11 00:41:21;;;;;;;8.68;5.63;;;19.80;99.90;;;;;;5007818;28;20029;-85
2023/07/11 00:43:47;;;;;;;8.55;5.82;;;19.90;99.90;;;;;;5007932;28;20029;-85
2023/07/11 00:46:18;;;;;;;7.22;5.50;;;19.80;99.90;;;;;;5008224;28;20057;-85
2023/07/11 00:48:51;;;;;;;13.07;6.40;;;19.80;99.90;;;;;;5008747;28;20073;-85
2023/07/11 00:51:22;;;;;;;8.35;5.47;;;19.80;99.90;;;;;;5007853;28;20033;-86
2023/07/11 00:53:48;;;;;;;8.13;5.82;;;19.70;99.90;;;;;;5007966;28;20053;-86
2023/07/11 00:56:18;;;;;;;11.30;5.90;;;19.70;99.90;;;;;;5007154;28;20161;-85
2023/07/11 00:58:45;;;;;;;8.85;6.13;;;19.60;99.90;;;;;;5007833;28;20037;-85
2023/07/11 01:01:12;;;;;;;8.27;6.43;;;19.50;99.90;;;;;;5006416;28;20030;-85
2023/07/11 01:03:37;;;;;;;8.35;6.07;;;19.50;99.90;;;;;;5006077;28;20038;-86
2023/07/11 01:06:11;;;;;;;10.07;5.95;;;19.40;99.90;;;;;;5007346;28;20025;-85
2023/07/11 01:08:36;;;;;;;10.15;6.38;;;19.40;99.90;;;;;;5007575;28;20409;-86
2023/07/11 01:11:04;;;;;;;10.48;6.15;;;19.40;99.90;;;;;;5006494;28;20133;-85
2023/07/11 01:13:30;;;;;;;8.07;6.25;;;19.30;99.90;;;;;;5006971;28;20512;-86
2023/07/11 01:15:55;;;;;;;7.80;6.28;;;19.30;99.90;;;;;;5007310;28;20049;-85
2023/07/11 01:18:21;;;;;;;13.40;6.38;;;19.30;99.90;;;;;;5007447;28;20026;-85
2023/07/11 01:20:46;;;;;;;8.40;5.93;;;19.30;99.90;;;;;;5007155;28;20028;-85
2023/07/11 01:23:12;;;;;;;10.23;6.05;;;19.20;99.90;;;;;;5007396;28;20026;-86
2023/07/11 01:25:38;;;;;;;9.75;6.35;;;19.30;99.90;;;;;;5006634;28;20033;-86
2023/07/11 01:28:04;;;;;;;8.40;6.40;;;19.20;99.90;;;;;;5006983;28;20041;-85
2023/07/11 01:30:29;;;;;;;10.88;6.80;;;19.10;99.90;;;;;;5007322;28;20923;-85
2023/07/11 01:32:55;;;;;;;9.57;6.40;;;19.20;99.90;;;;;;5006910;28;20037;-85
2023/07/11 01:35:21;;;;;;;8.98;6.45;;;19.10;99.90;;;;;;5049441;22;20045;-82
2023/07/11 01:37:46;;;;;;;8.50;6.15;;;19.10;99.90;;;;;;5010084;28;20041;-82
2023/07/11 01:40:12;;;;;;;11.02;6.28;;;19.00;99.90;;;;;;5009422;28;20037;-81
2023/07/11 01:42:39;;;;;;;8.30;6.32;;;19.00;99.90;;;;;;5009945;28;20037;-81
2023/07/11 01:45:06;;;;;;;7.78;6.40;;;19.00;99.90;;;;;;4995007;28;20100;-82
2023/07/11 01:47:31;;;;;;;9.90;7.05;;;19.00;99.90;;;;;;4988518;28;20034;-80
2023/07/11 01:49:57;;;;;;;11.90;6.55;;;19.00;99.90;;;;;;4985504;28;20026;-77
2023/07/11 01:52:23;;;;;;;11.60;6.63;;;18.90;99.90;;;;;;4985729;28;20118;-77
2023/07/11 01:54:49;;;;;;;13.05;6.53;;;18.90;99.90;;;;;;4985520;28;20062;-77
2023/07/11 01:57:15;;;;;;;7.78;6.60;;;18.90;99.90;;;;;;4985557;28;20122;-77
2023/07/11 01:59:41;;;;;;;10.55;7.05;;;18.80;99.90;;;;;;4985558;28;20759;-77
2023/07/11 02:02:07;;;;;;;8.02;6.82;;;18.80;99.90;;;;;;4984143;28;20100;-77
2023/07/11 02:04:34;;;;;;;11.63;6.25;;;18.80;99.90;;;;;;4984573;28;20095;-78
2023/07/11 02:07:00;;;;;;;9.20;6.22;;;18.70;99.90;;;;;;4985514;28;20026;-77
2023/07/11 02:09:26;;;;;;;10.00;6.45;;;18.70;99.90;;;;;;4985378;28;20798;-77
2023/07/11 02:11:51;;;;;;;8.50;6.53;;;18.70;99.90;;;;;;4984698;28;20026;-78
2023/07/11 02:14:19;;;;;;;8.77;6.55;;;18.70;99.90;;;;;;4984547;28;20034;-77
2023/07/11 02:16:46;;;;;;;10.63;6.43;;;18.70;99.90;;;;;;4984366;28;20026;-77
2023/07/11 02:19:13;;;;;;;9.45;6.90;;;18.70;99.90;;;;;;4984683;28;20030;-77
2023/07/11 02:21:40;;;;;;;9.00;6.78;;;18.70;99.90;;;;;;4984367;28;20077;-77
2023/07/11 02:24:08;;;;;;;9.52;6.85;;;18.60;99.90;;;;;;4984092;28;20108;-77
2023/07/11 02:26:34;;;;;;;9.25;6.60;;;18.60;99.90;;;;;;4984689;28;20469;-77
2023/07/11 02:29:00;;;;;;;10.48;7.00;;;18.60;99.90;;;;;;4985114;28;20060;-78
2023/07/11 02:31:26;;;;;;;10.40;6.68;;;18.60;99.90;;;;;;4984071;28;20034;-77
2023/07/11 02:33:51;;;;;;;7.60;6.80;;;18.60;99.90;;;;;;4984445;28;20613;-78
2023/07/11 02:36:17;;;;;;;10.32;6.80;;;18.60;99.90;;;;;;4984284;28;20023;-77
2023/07/11 02:38:43;;;;;;;10.07;6.82;;;18.50;99.90;;;;;;4985046;28;20026;-77
2023/07/11 02:41:08;;;;;;;9.52;6.40;;;18.50;99.90;;;;;;4984089;28;20124;-78
2023/07/11 02:43:34;;;;;;;13.98;6.88;;;18.40;99.90;;;;;;4983001;28;20118;-78
2023/07/11 02:45:59;;;;;;;13.27;6.90;;;18.40;99.90;;;;;;4984159;28;20026;-81
2023/07/11 02:48:26;;;;;;;11.35;7.85;;;18.40;99.90;;;;;;4984582;28;20514;-77
2023/07/11 02:50:51;;;;;;;12.85;6.45;;;18.30;99.90;;;;;;4983629;28;20019;-77
2023/07/11 02:53:17;;;;;;;15.38;7.40;;;18.30;99.90;;;;;;4984466;28;20045;-77
2023/07/11 02:55:43;;;;;;;10.02;6.50;;;18.20;99.90;;;;;;4983800;28;20030;-77
2023/07/11 02:58:09;;;;;;;9.00;6.63;;;18.20;99.90;;;;;;4984169;28;20077;-78
2023/07/11 03:00:36;;;;;;;10.68;6.70;;;18.20;99.90;;;;;;4983994;28;20058;-77
2023/07/11 03:03:01;;;;;;;12.68;7.43;;;18.20;99.90;;;;;;4984910;28;20727;-77
2023/07/11 03:05:27;;;;;;;9.55;6.57;;;18.20;99.90;;;;;;4983845;28;20033;-79
2023/07/11 03:07:53;;;;;;;9.63;7.22;;;18.10;99.90;;;;;;4984202;28;20034;-79
2023/07/11 03:10:18;;;;;;;7.35;6.07;;;18.10;99.90;;;;;;4984728;28;20813;-79
2023/07/11 03:12:44;;;;;;;10.10;6.82;;;18.10;99.90;;;;;;4984476;28;20034;-79
2023/07/11 03:15:09;;;;;;;9.13;7.10;;;18.10;99.90;;;;;;4982695;28;20037;-80
2023/07/11 03:17:35;;;;;;;8.32;6.30;;;18.10;99.90;;;;;;4984154;28;20035;-79
2023/07/11 03:20:00;;;;;;;9.40;6.57;;;18.10;99.90;;;;;;4983147;28;20029;-80
2023/07/11 03:22:27;;;;;;;11.13;6.72;;;18.10;99.90;;;;;;4984027;28;20693;-79
2023/07/11 03:24:53;;;;;;;9.35;6.68;;;18.10;99.90;;;;;;4982160;28;20037;-79
2023/07/11 03:27:18;;;;;;;7.78;6.00;;;18.10;99.90;;;;;;4984274;28;20034;-79
2023/07/11 03:29:44;;;;;;;9.00;6.60;;;18.00;99.90;;;;;;4984009;28;20022;-79
2023/07/11 03:32:10;;;;;;;11.73;7.22;;;18.00;99.90;;;;;;4983268;28;20026;-79
2023/07/11 03:34:37;;;;;;;11.13;6.40;;;18.00;99.90;;;;;;4983145;28;20034;-81
2023/07/11 03:37:03;;;;;;;10.77;6.57;;;18.00;99.90;;;;;;4983829;28;20705;-79
2023/07/11 03:39:28;;;;;;;11.45;6.97;;;17.90;99.90;;;;;;4984627;28;20030;-80
2023/07/11 03:41:54;;;;;;;10.20;6.68;;;18.00;99.90;;;;;;4982638;28;20041;-79
2023/07/11 03:44:19;;;;;;;10.13;7.20;;;18.00;99.90;;;;;;4982498;28;20672;-77
2023/07/11 03:46:45;;;;;;;11.02;6.63;;;18.00;99.90;;;;;;4982723;28;20057;-79
2023/07/11 03:49:10;;;;;;;10.38;7.18;;;17.90;99.90;;;;;;4983758;28;20252;-75
2023/07/11 03:51:36;;;;;;;13.63;6.95;;;17.90;99.90;;;;;;4983787;28;20389;-73
2023/07/11 03:54:03;;;;;;;9.48;6.93;;;17.90;99.90;;;;;;4981863;28;20030;-74
2023/07/11 03:56:28;;;;;;;11.25;7.75;;;17.90;99.90;;;;;;4983715;28;20040;-74
2023/07/11 03:58:54;;;;;;;7.75;6.47;;;17.90;99.90;;;;;;4982681;28;20347;-74
2023/07/11 04:01:20;;;;;;;13.75;6.63;;;17.90;99.90;;;;;;4983330;28;21104;-73
2023/07/11 04:03:45;;;;;;;11.98;6.40;;;17.90;99.90;;;;;;4982896;28;20042;-73
2023/07/11 04:06:12;;;;;;;12.25;6.63;;;17.80;99.90;;;;;;4983041;28;20105;-74
2023/07/11 04:08:37;;;;;;;12.70;7.38;;;17.80;99.90;;;;;;4983434;28;20042;-73
2023/07/11 04:11:03;;;;;;;11.93;7.32;;;17.90;99.90;;;;;;4986421;28;20487;-73
2023/07/11 04:13:29;;;;;;;9.68;6.80;;;17.90;99.90;;;;;;4985963;28;20145;-75
2023/07/11 04:15:55;;;;;;;10.48;6.93;;;17.90;99.90;;;;;;4986630;28;20027;-72
2023/07/11 04:18:20;;;;;;;12.32;7.40;;;17.90;99.90;;;;;;4984911;28;20130;-73
2023/07/11 04:20:46;;;;;;;13.80;6.95;;;17.90;99.90;;;;;;4986528;28;20030;-73
2023/07/11 04:23:13;;;;;;;9.85;6.63;;;17.90;99.90;;;;;;4985170;28;20064;-73
2023/07/11 04:25:38;;;;;;;8.90;6.78;;;17.90;99.90;;;;;;4985958;28;21446;-73
2023/07/11 04:28:05;;;;;;;12.05;6.82;;;17.90;99.90;;;;;;4985617;28;20038;-74
2023/07/11 04:30:31;;;;;;;9.48;6.75;;;17.90;99.90;;;;;;4985680;28;20101;-73
2023/07/11 04:32:57;;;;;;;9.27;6.45;;;18.00;99.90;;;;;;4985477;28;20041;-75
2023/07/11 04:35:22;;;;;;;11.68;6.90;;;18.00;99.90;;;;;;4984508;28;20042;-74
2023/07/11 04:37:48;;;;;;;12.25;7.03;;;18.10;99.90;;;;;;4985362;28;20038;-74
2023/07/11 04:40:15;;;;;;;13.18;7.03;;;18.10;99.90;;;;;;4985289;28;20022;-75
2023/07/11 04:42:40;;;;;;;13.13;6.88;;;18.20;99.90;;;;;;4985876;28;20030;-74
2023/07/11 04:45:08;;;;;;;11.25;6.45;;;18.30;99.90;;;;;;4984761;28;20029;-74
2023/07/11 04:47:34;;;;;;;9.32;6.82;;;18.30;99.90;;;;;;4983545;28;20465;-75
2023/07/11 04:50:00;;;;;;;12.98;7.28;;;18.40;99.90;;;;;;4984374;28;20023;-76
2023/07/11 04:52:26;;;;;;;11.65;7.82;;;18.40;99.90;;;;;;4984427;28;20029;-74
2023/07/11 04:54:52;;;;;;;9.90;7.25;;;18.50;99.90;;;;;;4984844;28;20023;-76
2023/07/11 04:57:18;;;;;;;9.30;7.28;;;18.50;99.90;;;;;;4983578;28;20096;-76
2023/07/11 04:59:43;;;;;;;14.45;7.18;;;18.60;99.90;;;;;;4975924;28;20023;-74
2023/07/11 05:02:09;;;;;;;16.00;7.05;;;18.70;99.90;;;;;;4978640;28;20093;-75
2023/07/11 05:04:35;;;;;;;12.25;7.45;;;18.80;99.90;;;;;;4982170;28;20026;-75
2023/07/11 05:07:00;;;;;;;8.23;6.45;;;18.80;99.90;;;;;;4980882;28;20027;-73
2023/07/11 05:09:29;;;;;;;9.80;6.82;;;18.90;99.90;;;;;;4976496;28;20034;-74
2023/07/11 05:11:55;;;;;;;10.63;6.95;;;19.00;99.90;;;;;;4977987;28;20026;-75
2023/07/11 05:14:21;;;;;;;13.45;7.65;;;19.10;99.90;;;;;;4977748;28;21011;-73
2023/07/11 05:16:46;;;;;;;10.07;6.80;;;19.10;99.90;;;;;;4976125;28;20030;-73
2023/07/11 05:19:12;;;;;;;9.38;6.68;;;19.20;99.90;;;;;;4973899;28;20038;-74
2023/07/11 05:21:37;;;;;;;9.10;6.32;;;19.30;99.90;;;;;;4974599;28;20053;-73
2023/07/11 05:24:03;;;;;;;11.15;6.82;;;19.40;99.90;;;;;;4977115;28;20121;-73
2023/07/11 05:26:29;;;;;;;14.40;6.72;;;19.50;99.90;;;;;;4975873;28;20034;-76
2023/07/11 05:28:55;;;;;;;9.43;6.78;;;19.60;99.90;;;;;;4974662;28;20074;-75
2023/07/11 05:31:21;;;;;;;10.20;6.40;;;19.70;99.90;;;;;;4978061;28;20184;-74
2023/07/11 05:33:47;;;;;;;8.00;6.45;;;19.90;99.90;;;;;;4982526;28;20044;-73
2023/07/11 05:38:45;;;;;;;10.60;6.20;;;20.10;99.90;;;;;;4982280;28;20045;-74
2023/07/11 05:41:11;;;;;;;10.00;6.78;;;20.30;99.90;;;;;;4981430;28;20035;-73
2023/07/11 05:43:36;;;;;;;10.10;6.90;;;20.40;99.90;;;;;;4982356;28;20042;-74
2023/07/11 05:46:02;;;;;;;7.90;6.32;;;20.60;99.90;;;;;;4982988;28;20049;-73
2023/07/11 05:48:27;;;;;;;12.45;6.75;;;20.70;99.90;;;;;;4984258;28;20042;-73
2023/07/11 05:51:02;;;;;;;11.52;6.20;;;20.90;99.90;;;;;;4984515;28;20022;-73
2023/07/11 05:53:28;;;;;;;11.48;6.35;;;21.00;99.90;;;;;;4983079;28;20050;-73
2023/07/11 05:55:55;;;;;;;8.82;6.20;;;21.10;99.90;;;;;;4984784;28;20026;-73
2023/07/11 05:58:21;;;;;;;9.40;6.05;;;21.20;99.90;;;;;;4984303;28;20325;-73
2023/07/11 06:00:46;;;;;;;12.25;6.75;;;21.40;99.90;;;;;;4982265;28;20038;-73
2023/07/11 06:03:12;;;;;;;9.10;6.22;;;21.50;99.90;;;;;;4982014;28;20026;-73
2023/07/11 06:05:37;;;;;;;11.38;6.00;;;21.60;99.90;;;;;;4982678;28;20026;-74
2023/07/11 06:08:03;;;;;;;12.20;7.07;;;21.70;99.90;;;;;;4981371;28;20129;-75
2023/07/11 06:10:29;;;;;;;11.60;6.85;;;21.80;99.90;;;;;;4979473;28;20038;-73
2023/07/11 06:12:54;;;;;;;10.07;5.88;;;21.90;99.90;;;;;;4979959;28;20038;-75
2023/07/11 06:15:20;;;;;;;11.13;6.28;;;22.00;99.90;;;;;;4979352;28;20041;-72
2023/07/11 06:17:45;;;;;;;8.10;5.88;;;22.20;99.90;;;;;;4982029;28;20853;-72
2023/07/11 06:20:11;;;;;;;10.93;7.05;;;22.40;99.90;;;;;;4981204;28;20030;-73
2023/07/11 06:22:37;;;;;;;13.45;7.00;;;22.60;99.90;;;;;;4980854;28;20103;-72
2023/07/11 06:25:03;;;;;;;9.60;6.43;;;22.70;99.90;;;;;;4981217;28;20121;-77
2023/07/11 06:27:29;;;;;;;13.10;7.10;;;22.90;99.90;;;;;;4982287;28;20046;-77
2023/07/11 06:29:55;;;;;;;10.02;6.18;;;23.10;99.90;;;;;;4979368;28;20033;-78
2023/07/11 06:32:20;;;;;;;11.07;6.45;;;23.20;99.90;;;;;;4981439;28;20037;-77
2023/07/11 06:34:46;;;;;;;12.13;6.40;;;23.40;99.90;;;;;;4981899;28;20036;-77
2023/07/11 06:37:11;;;;;;;9.88;6.38;;;23.50;99.90;;;;;;4981341;28;20137;-77
2023/07/11 06:39:37;;;;;;;9.85;6.20;;;23.70;99.90;;;;;;4980929;28;20058;-78
2023/07/11 06:42:03;;;;;;;12.70;6.45;;;23.80;99.90;;;;;;4981100;28;20073;-77
2023/07/11 06:44:30;;;;;;;9.13;6.10;;;23.90;99.90;;;;;;4982418;28;20110;-78
2023/07/11 06:46:56;;;;;;;9.30;5.90;;;24.10;99.90;;;;;;4980005;28;20124;-77
2023/07/11 06:49:22;;;;;;;11.13;6.30;;;24.20;99.90;;;;;;4982207;28;20042;-78
2023/07/11 06:51:49;;;;;;;10.30;5.55;;;24.30;99.90;;;;;;4981055;28;21321;-77
2023/07/11 06:54:15;;;;;;;12.77;5.03;;;24.40;99.90;;;;;;4982006;28;20038;-77
2023/07/11 06:56:41;;;;;;;13.23;5.40;;;24.50;99.90;;;;;;4981750;28;20109;-77
2023/07/11 06:59:08;;;;;;;11.52;5.40;;;24.70;99.90;;;;;;4981569;28;20045;-77
2023/07/11 07:01:33;;;;;;;11.52;5.88;;;24.80;99.90;;;;;;4981678;28;20035;-77
2023/07/11 07:04:00;;;;;;;14.88;5.75;;;25.00;99.90;;;;;;4980479;28;20124;-77
2023/07/11 07:06:26;;;;;;;11.55;5.95;;;25.10;99.90;;;;;;4980637;28;20069;-78
2023/07/11 07:08:52;;;;;;;11.82;5.20;;;25.20;99.90;;;;;;4981313;28;20065;-76
2023/07/11 07:11:18;;;;;;;9.00;5.20;;;25.30;99.90;;;;;;4980128;28;20609;-77
2023/07/11 07:13:43;;;;;;;10.80;5.65;;;25.40;99.90;;;;;;4980126;28;20034;-77
2023/07/11 07:16:09;;;;;;;12.02;6.25;;;25.50;99.90;;;;;;4981761;28;20033;-77
2023/07/11 07:18:38;;;;;;;12.75;5.45;;;25.60;99.90;;;;;;4980919;28;20116;-79
2023/07/11 07:21:04;;;;;;;9.50;5.53;;;25.70;99.90;;;;;;4981646;28;20038;-78
2023/07/11 07:23:33;;;;;;;11.02;5.50;;;25.80;99.90;;;;;;4980957;28;20029;-76
2023/07/11 07:26:00;;;;;;;11.00;6.03;;;25.90;99.90;;;;;;4980762;28;20033;-77
2023/07/11 07:28:28;;;;;;;8.07;4.97;;;25.90;99.90;;;;;;4980659;28;20046;-77
2023/07/11 07:30:55;;;;;;;11.65;5.32;;;26.00;99.90;;;;;;4978971;28;20034;-77
2023/07/11 07:33:25;;;;;;;16.05;5.38;;;26.00;99.90;;;;;;4980532;28;20802;-77
2023/07/11 07:35:56;;;;;;;13.98;5.22;;;26.10;99.90;;;;;;4981071;28;20045;-77
2023/07/11 07:38:21;;;;;;;11.40;5.18;;;26.10;99.90;;;;;;4982351;28;20051;-76
2023/07/11 07:40:57;;;;;;;7.20;4.75;;;26.20;99.90;;;;;;4980904;28;20106;-77
2023/07/11 07:43:23;;;;;;;7.65;5.00;;;26.20;99.90;;;;;;4980907;28;20517;-77
2023/07/11 07:45:50;;;;;;;7.00;5.05;;;26.30;99.90;;;;;;4984025;28;20030;-77
2023/07/11 07:48:15;;;;;;;11.68;5.10;;;26.40;99.90;;;;;;4984416;28;20125;-77
2023/07/11 07:50:41;;;;;;;8.80;5.50;;;26.50;99.90;;;;;;4985684;28;20028;-76
2023/07/11 07:53:07;;;;;;;10.60;5.13;;;26.50;99.90;;;;;;4984404;28;20624;-80
2023/07/11 07:55:36;;;;;;;9.30;5.20;;;26.70;99.90;;;;;;4984090;28;20046;-76
2023/07/11 07:58:02;;;;;;;10.55;5.00;;;26.80;99.90;;;;;;4985594;28;20070;-77
2023/07/11 08:00:28;;;;;;;7.30;5.22;;;26.80;99.90;;;;;;4984728;28;20172;-78
2023/07/11 08:02:53;;;;;;;10.82;5.35;;;26.90;99.90;;;;;;4983812;28;20121;-78
2023/07/11 08:05:20;;;;;;;8.82;5.03;;;27.00;99.90;;;;;;4984458;28;20038;-77
2023/07/11 08:07:47;;;;;;;10.95;5.38;;;27.00;99.90;;;;;;4983698;28;20050;-79
2023/07/11 08:10:13;;;;;;;7.95;5.07;;;27.10;99.90;;;;;;4984059;28;20085;-79
2023/07/11 08:12:39;;;;;;;7.40;4.82;;;27.20;99.90;;;;;;4984401;28;20074;-79
2023/07/11 08:15:05;;;;;;;12.15;5.32;;;27.20;99.90;;;;;;4984327;28;21330;-79
2023/07/11 08:17:31;;;;;;;7.78;5.07;;;27.40;99.90;;;;;;4984304;28;20033;-78
2023/07/11 08:19:57;;;;;;;7.88;4.85;;;27.40;99.90;;;;;;4983715;28;20062;-77
2023/07/11 08:22:22;;;;;;;7.15;4.93;;;27.40;99.90;;;;;;4985069;28;20129;-78
2023/07/11 08:24:48;;;;;;;8.75;5.32;;;27.50;99.90;;;;;;4983816;28;20030;-76
2023/07/11 08:27:13;;;;;;;7.47;4.97;;;27.60;99.90;;;;;;4984897;28;20034;-79
2023/07/11 08:29:44;;;;;;;10.43;5.03;;;27.60;99.90;;;;;;4984597;28;20064;-78
2023/07/11 08:32:11;;;;;;;7.55;4.80;;;27.60;99.90;;;;;;4983960;28;20503;-77
2023/07/11 08:34:36;;;;;;;9.82;4.65;;;27.80;99.90;;;;;;4983790;28;20034;-78
2023/07/11 08:37:02;;;;;;;10.43;5.55;;;27.80;99.90;;;;;;4982528;28;20022;-77
2023/07/11 08:39:28;;;;;;;7.43;4.70;;;27.80;99.90;;;;;;4982211;28;20048;-78
2023/07/11 08:41:55;;;;;;;9.07;4.70;;;27.90;99.90;;;;;;4981734;28;20173;-77
2023/07/11 08:44:31;;;;;;;9.32;5.22;;;28.00;99.90;;;;;;4982431;28;20801;-78
2023/07/11 08:47:08;;;;;;;7.57;4.88;;;28.00;99.90;;;;;;4983992;28;20113;-80
2023/07/11 08:49:57;;;;;;;12.50;5.55;;;28.10;99.90;;;;;;4983751;28;20073;-73
2023/07/11 08:52:25;;;;;;;7.38;5.15;;;28.20;99.90;;;;;;4979726;28;20119;-74
2023/07/11 08:55:09;;;;;;;7.20;4.97;;;28.30;99.90;;;;;;4981984;28;20760;-75
2023/07/11 08:57:40;;;;;;;8.18;5.28;;;28.50;99.90;;;;;;4984294;28;20026;-78
2023/07/11 09:00:09;;;;;;;10.43;5.43;;;28.50;99.90;;;;;;4983851;28;20065;-78
2023/07/11 09:02:57;;;;;;;8.10;5.00;;;28.60;99.90;;;;;;4977157;28;20038;-83
2023/07/11 09:05:49;;;;;;;9.95;5.10;;;28.70;99.90;;;;;;4977034;28;20053;-81
2023/07/11 09:08:17;;;;;;;6.45;4.78;;;28.80;99.90;;;;;;4977581;28;20156;-79
2023/07/11 09:10:48;;;;;;;13.07;5.43;;;28.90;99.90;;;;;;4976793;28;20514;-78
2023/07/11 09:13:16;;;;;;;9.10;4.82;;;29.00;99.90;;;;;;4976839;28;20034;-78
2023/07/11 09:16:16;;;;;;;9.40;5.25;;;29.00;99.90;;;;;;4977102;28;20038;-79
2023/07/11 09:18:54;;;;;;;11.05;5.43;;;29.10;99.90;;;;;;4961725;28;20803;-78
2023/07/11 09:21:31;;;;;;;9.27;5.20;;;29.20;99.90;;;;;;4976754;28;20026;-82
2023/07/11 09:24:03;;;;;;;11.98;5.28;;;29.30;99.90;;;;;;4976534;28;20032;-81
2023/07/11 09:26:30;;;;;;;9.55;5.30;;;29.40;99.90;;;;;;4975785;28;20867;-81
2023/07/11 09:29:05;;;;;;;8.25;4.78;;;29.50;99.90;;;;;;4977001;28;20042;-80
2023/07/11 09:31:39;;;;;;;10.57;5.38;;;29.60;99.90;;;;;;4976337;28;20121;-78
2023/07/11 09:34:33;;;;;;;11.13;5.47;;;29.70;99.90;;;;;;4976523;28;20026;-81
2023/07/11 09:37:02;;;;;;;10.15;5.38;;;29.90;99.90;;;;;;4974447;28;20498;-78
2023/07/11 09:39:35;;;;;;;9.50;5.60;;;30.00;99.90;;;;;;4976796;28;20068;-80
2023/07/11 09:42:33;;;;;;;9.05;5.10;;;30.20;99.90;;;;;;4977023;28;20026;-79
2023/07/11 09:45:13;;;;;;;10.50;5.03;;;30.40;99.90;;;;;;4949200;28;20034;-79
2023/07/11 09:47:41;;;;;;;11.00;5.57;;;30.60;99.90;;;;;;4975155;28;20041;-79
2023/07/11 09:50:51;;;;;;;11.18;5.45;;;30.70;99.90;;;;;;4975730;28;20037;-79
2023/07/11 09:53:20;;;;;;;7.82;5.40;;;30.60;99.90;;;;;;4959757;28;20096;-78
2023/07/11 09:55:46;;;;;;;8.27;4.88;;;30.80;99.90;;;;;;4980940;28;20121;-78
2023/07/11 09:58:16;;;;;;;8.02;5.03;;;31.00;99.90;;;;;;4981340;28;20520;-79
2023/07/11 10:00:50;;;;;;;10.23;4.97;;;31.40;99.90;;;;;;4981526;28;20066;-79
2023/07/11 10:03:22;;;;;;;11.10;5.32;;;31.60;99.90;;;;;;4982481;28;20034;-78
2023/07/11 10:05:49;;;;;;;9.98;5.20;;;32.00;99.90;;;;;;4981612;28;20038;-72
2023/07/11 10:08:19;;;;;;;9.10;5.47;;;32.10;99.90;;;;;;4981294;28;20050;-72
2023/07/11 10:10:53;;;;;;;14.30;6.05;;;32.20;99.90;;;;;;4982899;28;20132;-71
2023/07/11 10:13:20;;;;;;;10.55;5.60;;;32.40;99.90;;;;;;4978870;28;20120;-71
2023/07/11 10:15:54;;;;;;;12.05;5.38;;;32.50;99.90;;;;;;4982172;28;20037;-71
2023/07/11 10:18:28;;;;;;;10.05;5.15;;;32.50;99.90;;;;;;4982159;28;20563;-72
2023/07/11 10:21:19;;;;;;;10.10;5.30;;;32.70;99.90;;;;;;4982569;28;20040;-70
2023/07/11 10:23:48;;;;;;;12.68;4.95;;;33.00;99.90;;;;;;4969809;28;20045;-72
2023/07/11 10:26:36;;;;;;;9.38;5.53;;;33.30;99.60;;;;;;4980429;28;20675;-75
2023/07/11 10:29:07;;;;;;;8.55;5.50;;;33.50;98.20;;;;;;4978073;28;20038;-73
2023/07/11 10:31:40;;;;;;;9.88;5.50;;;33.60;98.70;;;;;;4979215;28;20030;-73
2023/07/11 10:34:30;;;;;;;9.82;5.90;;;33.90;96.40;;;;;;4980618;28;20041;-73
2023/07/11 10:37:04;;;;;;;8.77;5.65;;;34.00;95.40;;;;;;4979394;28;20039;-74
2023/07/11 10:39:51;;;;;;;9.57;5.38;;;34.10;94.30;;;;;;4978144;28;20046;-73
2023/07/11 10:42:55;;;;;;;11.95;5.45;;;34.30;93.80;;;;;;4979063;28;20434;-74
2023/07/11 10:45:26;;;;;;;8.00;5.10;;;34.60;94.30;;;;;;4967910;28;20190;-73
2023/07/11 10:48:13;;;;;;;9.65;5.57;;;34.70;94.80;;;;;;4981249;28;20046;-72
2023/07/11 10:50:51;;;;;;;11.02;5.43;;;34.80;92.10;;;;;;4981476;28;20026;-78
2023/07/11 10:53:25;;;;;;;7.90;5.40;;;34.70;92.30;;;;;;4973423;28;20042;-79
2023/07/11 10:56:16;;;;;;;17.13;6.35;;;34.70;93.70;;;;;;4975114;28;20109;-79
2023/07/11 10:58:42;;;;;;;11.90;5.47;;;35.00;93.50;;;;;;4976962;28;20410;-80
2023/07/11 11:01:35;;;;;;;8.15;5.88;;;35.30;91.90;;;;;;4976320;28;20030;-78
2023/07/11 11:04:16;;;;;;;10.80;5.40;;;35.40;90.40;;;;;;4974665;28;20129;-78
2023/07/11 11:06:54;;;;;;;13.50;5.40;;;35.60;88.60;;;;;;4975509;28;20847;-81
2023/07/11 11:09:35;;;;;;;7.30;5.32;;;35.70;90.20;;;;;;4975522;28;20054;-81
2023/07/11 11:12:30;;;;;;;8.32;5.20;;;35.90;88.30;;;;;;4976082;28;20034;-78
2023/07/11 11:15:14;;;;;;;8.02;5.00;;;35.90;89.00;;;;;;4974534;28;20046;-81
2023/07/11 11:17:50;;;;;;;7.72;5.28;;;36.10;85.90;;;;;;4976418;28;20074;-78
2023/07/11 11:20:23;;;;;;;9.75;5.40;;;36.20;87.70;;;;;;4975611;28;20600;-79
2023/07/11 11:23:03;;;;;;;;;;;36.20;86.00;;;;;;4977418;28;20125;-79
2023/07/11 11:25:42;;;;;;;7.80;5.25;;;36.20;86.70;;;;;;4971020;28;20058;-81
2023/07/11 11:28:27;;;;;;;13.90;5.57;;;36.40;84.50;;;;;;4973621;28;20544;-78
2023/07/11 11:30:59;;;;;;;11.27;5.75;;;36.30;83.10;;;;;;4971722;28;20050;-79
2023/07/11 11:33:36;;;;;;;10.23;5.15;;;36.20;86.10;;;;;;4974526;28;20037;-78
2023/07/11 11:36:21;;;;;;;11.68;4.80;;;36.30;85.20;;;;;;4974491;28;20089;-78
2023/07/11 11:39:13;;;;;;;10.80;5.30;;;36.40;82.50;;;;;;4976666;28;20037;-79
2023/07/11 11:41:54;;;;;;;8.60;4.93;;;36.50;81.10;;;;;;4974142;28;20200;-79
2023/07/11 11:44:46;;;;;;;9.32;4.65;;;36.50;83.90;;;;;;4972963;28;20245;-80
2023/07/11 11:47:13;;;;;;;9.63;5.65;;;36.60;83.30;;;;;;4975549;28;20034;-80
2023/07/11 11:49:39;;;;;;;10.23;5.50;;;36.80;82.00;;;;;;4973303;28;20042;-79
2023/07/11 11:52:06;;;;;;;16.75;6.40;;;36.80;80.30;;;;;;4973462;28;20040;-78
2023/07/11 11:54:37;;;;;;;10.32;5.05;;;36.90;78.00;;;;;;4972755;28;21538;-78
2023/07/11 11:57:03;;;;;;;8.90;5.03;;;36.60;78.00;;;;;;4974668;28;20030;-78
2023/07/11 11:59:30;;;;;;;9.95;5.20;;;36.30;81.10;;;;;;4975271;28;20410;-80
2023/07/11 12:02:08;;;;;;;8.10;4.72;;;36.20;79.70;;;;;;4977235;28;20036;-81
2023/07/11 12:04:37;;;;;;;8.60;5.05;;;36.20;78.80;;;;;;4972955;28;20669;-78
2023/07/11 12:07:12;;;;;;;8.95;4.90;;;36.10;80.40;;;;;;4975079;28;20125;-79
2023/07/11 12:09:53;;;;;;;11.45;4.78;;;36.30;80.90;;;;;;4974717;28;20037;-78
2023/07/11 12:12:23;;;;;;;8.45;5.55;;;36.50;81.30;;;;;;4975642;28;20645;-78
2023/07/11 12:14:51;;;;;;;15.60;5.75;;;37.10;76.30;;;;;;4974162;28;20030;-80
2023/07/11 12:17:29;;;;;;;7.38;5.90;;;37.20;78.70;;;;;;4975497;28;20091;-81
2023/07/11 12:20:03;;;;;;;10.88;5.90;;;37.40;79.50;;;;;;4972603;28;20410;-77
2023/07/11 12:22:52;;;;;;;9.63;4.97;;;37.20;78.00;;;;;;4972148;28;20034;-78
2023/07/11 12:25:28;;;;;;;9.00;5.53;;;37.10;76.90;;;;;;4970470;28;20114;-80
2023/07/11 12:27:53;;;;;;;8.95;4.88;;;36.60;77.60;;;;;;4973414;28;20046;-81
2023/07/11 12:30:31;;;;;;;8.57;4.65;;;36.50;77.20;;;;;;4973706;28;20026;-77
2023/07/11 12:33:21;;;;;;;8.70;4.93;;;36.30;78.00;;;;;;4975848;28;20041;-79
2023/07/11 12:35:56;;;;;;;7.18;5.15;;;36.40;80.00;;;;;;4973491;28;20108;-78
2023/07/11 12:38:35;;;;;;;8.93;5.40;;;36.60;80.60;;;;;;4975739;28;20037;-77
2023/07/11 12:41:19;;;;;;;13.02;4.97;;;36.70;79.80;;;;;;4976528;28;20403;-79
2023/07/11 12:43:47;;;;;;;8.38;4.30;;;37.20;78.50;;;;;;4977413;28;20038;-79
2023/07/11 12:46:28;;;;;;;10.23;4.53;;;37.30;76.80;;;;;;4978809;28;21690;-86
2023/07/11 12:48:55;;;;;;;8.70;4.40;;;37.30;74.60;;;;;;4980201;28;20680;-79
2023/07/11 12:51:33;;;;;;;12.07;4.50;;;37.40;75.70;;;;;;4982237;28;20098;-78
2023/07/11 12:54:14;;;;;;;8.65;4.93;;;37.60;75.60;;;;;;4980072;28;20840;-79
2023/07/11 12:56:51;;;;;;;7.20;4.68;;;37.50;72.50;;;;;;4982336;28;20040;-81
2023/07/11 12:59:23;;;;;;;9.35;4.38;;;37.70;73.30;;;;;;4981267;28;20113;-80